Scroll down
FLIGHT INFORMATION
Federal Express (FedEx)

FDX12

At Arrival Gate

RJBB
 KIND
DATE: 2021-07-10
GATE:  -
GATE DEPARTURE: 16:21
TAKEOFF: 16:32
DATE: 2021-07-11
GATE:  -
LANDING: 04:36
GATE ARRIVAL: 04:42
FLIGHT DATA
Crew: 
Speed: 
505 kts
Altitude: 
37,026 ft
Stage Length: 
5,795.4 nm
Block Time: 
12.3 hrs
Flight Time: 
12.1 hrs
Fuel Used: 
198,082 lb
Cleared Route: RJBB MAIKO KAWAT CHIZU YME KMC OYABE IMIZU URUSI IKUJI GORYU HAKBA TERAD GTC ELDAK SDE BEKEN OATIS PUTER POXED PUGAL PASRO POWAL CHIKI RIZON 53N60 53N50 52N40 ORNAI SPONJ UDMAP SEFIX YYJ WOBED GTF FAR GEP ODI SIBER BRIBE COTON JOT EMMLY KIND
TRACK DATA
50,000 ft 1,000 kts
AIRCRAFT INFO AND CUMULATIVE STATS
Aircraft Type: 
B77LF
Registration: 
SELCAL: 
BCEK
MSN/LN: 
32969 / 827
Total Flights: 
5
Total Block Time: 
34.5 hrs
Total Flight Time: 
33.1 hrs
Total Fuel Used: 
554,863 lb
DATALINK LOG | Newest first | Current as of: 2022-09-25 17:26:48
LABEL SEQUENCE CONTENT Dn/Up
QD364404:42 27.4▼ Dn
QC303904:36▼ Dn
2U2240KIND 110313Z 10011KT 5SM RA BR SCT008 BKN024 BKN110 OVC130 21/19 A2985 RMK AO2 P0003 T02060194▲ Up
2S2240KIND▼ Dn
2U2952KIND 110054Z 13004KT 10SM -RA FEW018 BKN100 BKN120 OVC130 22/20 A2992 RMK AO2 RAB19 SLP127 P0000 T02220200▲ Up
2S2951KIND▼ Dn
QB261116:32▼ Dn
QA160116:21 225.6▼ Dn
A30158CLEARED TO KIND VIA MAIKO KAWAT CHIZU YME Y381 KMC Y45 GTC Y512 OATIS Y889 PUTER A590 PASRO A590 POWAL CHIKI RIZON 53n160w 53n150w 52n140w ORNAI SPONJ UDMAP SEFIX YYJ WOBED GTF FAR J36 ODI J30 JOT EMMLY JAKKS2 . SQUAWK 2340.▲ Up
2U0156RJBB 101530Z AUTO 23006KT 9999 FEW040 25/23 Q1012 NOSIG▲ Up
2U0155KCVG 101552Z 09007KT 10SM BKN008 OVC030 21/18 A3002 RMK AO2 RAE36 TSE1455 SLP157 TS MOV NE P0001 T02060183▲ Up
2U0155KIND 101554Z 14011KT 10SM SCT020 BKN110 BKN250 21/17 A2999 RMK AO2 SLP152 T02110172▲ Up
2S0154RJBB KIND KCVG▼ Dn
B30147RJBB KIND FDX12 N882FD ▼ Dn
Q05844[LINK ACK]▲ Up
Q05844[LINK TEST]▼ Dn


AIRCRAFT HISTORY
FLIGHT DATE FLIGHT NO. ORIGIN DESTINATION CLEARED ROUTE BLOCK TIME FLIGHT TIME FUEL USED PILOT
2021-07-10FDX12RJBB KIND RJBB MAIKO KAWAT CHIZU YME KMC OYABE IMIZU URUSI IKUJI GORYU HAKBA TERAD GTC ELDAK SDE BEKEN OATIS PUTER POXED PUGAL PASRO POWAL CHIKI RIZON 53N60 53N50 52N40 ORNAI SPONJ UDMAP SEFIX YYJ WOBED GTF FAR GEP ODI SIBER BRIBE COTON JOT EMMLY KIND12.3 hrs12.1 hrs198,082 lbAllan Burek
2021-04-30FDX21PHNL RJBB PHNL KEOLA PUPPI CANDY DATIS TOMOH HAMAR MAYAH BEIGE RW24R9.2 hrs8.8 hrs151,170 lbZsolt Szivak
2021-03-22FDX322KMEM PHNL KMEM HELAR JONEZ KF27E KF27C KF27A KF27Y KA27W KA27U KA27S KA27Q KA27O LVELL LAX BEFIN DINTY DUETS DADIE DIALO DUSAC DRAYK DENNS PHNL8.8 hrs8.5 hrs154,336 lbCharles Harris
2021-02-21FDX9882KDEN KMEM KDEN GAETR KK51A RZC KMEM1.9 hrs1.6 hrs20,654 lbAllan Burek
2021-02-17FDX217KOAK KDEN KOAK SYRAH JSICA LUDOH BUMMP KDEN2.3 hrs2.1 hrs30,622 lbCharles Harris